createdAt,value
2023-04-18T00:00:40.058Z,12.18
2023-04-18T00:03:42.329Z,12.10
2023-04-18T00:06:44.334Z,12.12
2023-04-18T00:09:46.087Z,12.10
2023-04-18T00:12:48.944Z,12.02
2023-04-18T00:15:54.223Z,12.00
2023-04-18T00:18:57.220Z,12.00
2023-04-18T00:21:59.936Z,12.13
2023-04-18T00:25:01.849Z,12.12
2023-04-18T00:28:03.764Z,12.19
2023-04-18T00:31:05.781Z,12.15
2023-04-18T00:34:07.676Z,12.05
2023-04-18T00:37:09.611Z,12.05
2023-04-18T00:40:12.039Z,11.96
2023-04-18T00:43:14.734Z,11.89
2023-04-18T00:46:16.692Z,11.99
2023-04-18T00:49:18.708Z,11.99
2023-04-18T00:52:20.907Z,12.02
2023-04-18T00:55:23.009Z,12.00
2023-04-18T00:58:24.836Z,11.91
2023-04-18T01:01:27.022Z,11.93
2023-04-18T01:04:29.045Z,11.94
2023-04-18T01:07:31.874Z,11.97
2023-04-18T01:10:33.791Z,11.97
2023-04-18T01:13:35.607Z,11.88
2023-04-18T01:16:38.922Z,11.84
2023-04-18T01:19:41.019Z,11.87
2023-04-18T01:22:42.929Z,11.84
2023-04-18T01:25:45.533Z,11.83
2023-04-18T01:28:47.606Z,11.79
2023-04-18T01:31:49.452Z,11.78
2023-04-18T01:34:51.284Z,11.73
2023-04-18T01:37:53.132Z,11.68
2023-04-18T01:40:55.073Z,11.72
2023-04-18T01:43:56.989Z,11.74
2023-04-18T01:46:58.775Z,11.74
2023-04-18T01:50:00.985Z,11.80
2023-04-18T01:53:02.965Z,11.83
2023-04-18T01:56:04.980Z,11.89
2023-04-18T01:59:06.801Z,11.92
2023-04-18T02:02:11.358Z,11.95
2023-04-18T02:05:13.274Z,11.98
2023-04-18T02:08:15.247Z,11.94
2023-04-18T02:11:17.106Z,11.90
2023-04-18T02:14:18.982Z,11.86
2023-04-18T02:17:21.599Z,11.80
2023-04-18T02:20:23.446Z,11.83
2023-04-18T02:23:25.305Z,11.80
2023-04-18T02:26:27.168Z,11.78
2023-04-18T02:29:30.607Z,11.75
2023-04-18T02:32:32.513Z,11.80
2023-04-18T02:35:34.403Z,11.65
2023-04-18T02:38:36.256Z,11.69
2023-04-18T02:41:39.379Z,11.69
2023-04-18T02:44:41.157Z,11.71
2023-04-18T02:47:53.649Z,11.71
2023-04-18T02:51:05.313Z,11.68
2023-04-18T02:54:07.126Z,11.70
2023-04-18T02:57:08.869Z,11.70
2023-04-18T03:00:11.446Z,11.70
2023-04-18T03:03:13.391Z,11.68
2023-04-18T03:06:15.799Z,11.70
2023-04-18T03:09:17.831Z,11.61
2023-04-18T03:12:19.736Z,11.56
2023-04-18T03:15:21.599Z,11.60
2023-04-18T03:18:23.436Z,11.61
2023-04-18T03:21:25.643Z,11.64
2023-04-18T03:24:27.465Z,11.65
2023-04-18T03:27:29.236Z,11.68
2023-04-18T03:30:31.370Z,11.69
2023-04-18T03:33:33.178Z,11.67
2023-04-18T03:36:34.949Z,11.65
2023-04-18T03:39:36.772Z,11.65
2023-04-18T03:42:38.581Z,11.65
2023-04-18T03:45:40.758Z,11.68
2023-04-18T03:48:42.570Z,11.70
2023-04-18T03:51:49.483Z,11.65
2023-04-18T03:54:51.573Z,11.55
2023-04-18T03:57:53.326Z,11.61
2023-04-18T04:00:55.121Z,11.65
2023-04-18T04:03:56.971Z,11.59
2023-04-18T04:06:59.264Z,11.65
2023-04-18T04:10:01.383Z,11.61
2023-04-18T04:13:03.373Z,11.60
2023-04-18T04:16:05.730Z,11.57
2023-04-18T04:19:07.654Z,11.49
2023-04-18T04:22:09.616Z,11.57
2023-04-18T04:25:13.845Z,11.57
2023-04-18T04:28:16.017Z,11.57
2023-04-18T04:31:18.782Z,11.58
2023-04-18T04:34:21.577Z,11.54
2023-04-18T04:37:23.861Z,11.54
2023-04-18T04:40:25.758Z,11.55
2023-04-18T04:43:28.861Z,11.58
2023-04-18T04:46:31.165Z,11.57
2023-04-18T04:49:32.986Z,11.50
2023-04-18T04:52:34.990Z,11.58
2023-04-18T04:55:38.589Z,11.60
2023-04-18T04:58:40.551Z,11.62
2023-04-18T05:01:42.434Z,11.66
2023-04-18T05:04:44.272Z,11.69
2023-04-18T05:07:47.038Z,11.69
2023-04-18T05:10:50.122Z,11.75
2023-04-18T05:13:52.561Z,11.78
2023-04-18T05:16:55.898Z,11.81
2023-04-18T05:19:57.936Z,11.77
2023-04-18T05:23:00.226Z,11.92
2023-04-18T05:26:06.134Z,11.96
2023-04-18T05:29:08.341Z,11.95
2023-04-18T05:32:10.721Z,12.02
2023-04-18T05:35:13.057Z,12.11
2023-04-18T05:38:15.476Z,12.14
2023-04-18T05:41:17.574Z,12.16
2023-04-18T05:44:20.163Z,12.19
2023-04-18T05:47:26.811Z,12.21
2023-04-18T05:50:28.712Z,12.25
2023-04-18T05:53:30.573Z,12.21
2023-04-18T05:56:32.508Z,12.29
2023-04-18T05:59:34.306Z,12.33
2023-04-18T06:02:36.792Z,12.35
2023-04-18T06:05:38.749Z,12.34
2023-04-18T06:08:40.910Z,12.39
2023-04-18T06:11:42.695Z,12.42
2023-04-18T06:14:44.520Z,12.46
2023-04-18T06:17:46.349Z,12.39
2023-04-18T06:20:48.249Z,12.46
2023-04-18T06:23:50.262Z,12.49
2023-04-18T06:26:52.149Z,12.49
2023-04-18T06:29:55.010Z,12.52
2023-04-18T06:32:57.024Z,12.55
2023-04-18T06:35:59.212Z,12.53
2023-04-18T06:39:01.258Z,12.57
2023-04-18T06:42:04.802Z,12.59
2023-04-18T06:45:07.321Z,12.56
2023-04-18T06:48:10.710Z,12.59
2023-04-18T06:51:12.841Z,12.57
2023-04-18T06:54:14.853Z,12.59
2023-04-18T06:57:16.934Z,12.63
2023-04-18T07:00:19.106Z,12.65
2023-04-18T07:03:21.008Z,12.68
2023-04-18T07:06:22.893Z,12.66
2023-04-18T07:09:24.868Z,12.63
2023-04-18T07:12:27.569Z,12.58
2023-04-18T07:15:29.455Z,12.57
2023-04-18T07:18:37.907Z,12.61
2023-04-18T07:21:42.605Z,12.65
2023-04-18T07:24:44.693Z,12.67
2023-04-18T07:27:46.506Z,12.67
2023-04-18T07:30:48.405Z,12.72
2023-04-18T07:33:51.137Z,12.74
2023-04-18T07:36:53.048Z,12.93
2023-04-18T07:39:54.903Z,13.07
2023-04-18T07:42:56.844Z,13.21
2023-04-18T07:45:59.129Z,13.32
2023-04-18T07:49:02.391Z,13.41
2023-04-18T07:52:04.645Z,13.51
2023-04-18T07:55:07.157Z,13.58
2023-04-18T07:58:09.695Z,13.74
2023-04-18T08:01:15.197Z,13.81
2023-04-18T08:04:17.129Z,13.95
2023-04-18T08:07:18.991Z,14.08
2023-04-18T08:10:22.456Z,14.23
2023-04-18T08:13:25.467Z,14.30
2023-04-18T08:16:27.742Z,14.45
2023-04-18T08:19:29.732Z,14.70
2023-04-18T08:22:31.886Z,14.71
2023-04-18T08:25:33.694Z,15.05
2023-04-18T08:28:35.573Z,15.40
2023-04-18T08:31:39.011Z,15.58
2023-04-18T08:34:40.969Z,15.69
2023-04-18T08:37:43.441Z,15.60
2023-04-18T08:40:45.985Z,15.99
2023-04-18T08:43:48.986Z,15.65
2023-04-18T08:46:50.864Z,15.72
2023-04-18T08:49:53.735Z,15.77
2023-04-18T08:52:56.109Z,15.53
2023-04-18T08:56:00.314Z,15.83
2023-04-18T08:59:02.786Z,16.00
2023-04-18T09:02:06.499Z,16.14
2023-04-18T09:05:12.381Z,16.03
2023-04-18T09:08:24.369Z,16.48
2023-04-18T09:11:29.839Z,16.15
2023-04-18T09:14:32.680Z,15.73
2023-04-18T09:17:43.915Z,16.04
2023-04-18T09:20:47.665Z,16.12
2023-04-18T09:23:50.468Z,16.03
2023-04-18T09:26:56.027Z,16.16
2023-04-18T09:30:01.658Z,16.37
2023-04-18T09:33:12.739Z,16.15
2023-04-18T09:36:18.247Z,16.42
2023-04-18T09:39:28.932Z,16.50
2023-04-18T09:42:39.982Z,16.47
2023-04-18T09:45:42.396Z,16.54
2023-04-18T09:48:46.352Z,16.61
2023-04-18T09:51:53.841Z,16.47
2023-04-18T09:54:58.803Z,16.33
2023-04-18T09:58:04.028Z,16.50
2023-04-18T10:01:06.374Z,16.50
2023-04-18T10:04:09.168Z,16.75
2023-04-18T10:07:11.736Z,16.67
2023-04-18T10:10:14.089Z,16.93
2023-04-18T10:13:19.146Z,16.96
2023-04-18T10:16:21.482Z,16.90
2023-04-18T10:19:25.107Z,16.92
2023-04-18T10:22:33.747Z,17.35
2023-04-18T10:25:41.533Z,17.28
2023-04-18T10:29:02.743Z,17.20
2023-04-18T10:32:11.645Z,17.53
2023-04-18T10:35:13.531Z,17.46
2023-04-18T10:38:18.321Z,18.05
2023-04-18T10:41:25.270Z,18.20
2023-04-18T10:44:27.604Z,17.91
2023-04-18T10:47:29.543Z,18.28
2023-04-18T10:50:31.477Z,18.04
2023-04-18T10:53:33.604Z,18.49
2023-04-18T10:56:38.977Z,18.22
2023-04-18T10:59:51.697Z,17.96
2023-04-18T11:03:00.289Z,18.44
2023-04-18T11:06:04.507Z,18.32
2023-04-18T11:09:13.864Z,18.74
2023-04-18T11:12:16.324Z,18.69
2023-04-18T11:15:23.851Z,18.90
2023-04-18T11:18:26.726Z,18.62
2023-04-18T11:21:30.591Z,18.81
2023-04-18T11:24:35.565Z,19.22
2023-04-18T11:27:37.676Z,18.93
2023-04-18T11:30:41.837Z,19.30
2023-04-18T11:33:47.905Z,19.05
2023-04-18T11:36:52.585Z,19.44
2023-04-18T11:39:56.059Z,19.74
2023-04-18T11:43:05.764Z,20.04
2023-04-18T11:46:08.081Z,19.51
2023-04-18T11:49:27.355Z,19.13
2023-04-18T11:52:30.795Z,19.43
2023-04-18T11:55:32.728Z,19.25
2023-04-18T11:58:36.281Z,19.52
2023-04-18T12:01:38.065Z,20.01
2023-04-18T12:04:59.626Z,19.87
2023-04-18T12:08:08.668Z,19.46
2023-04-18T12:11:20.258Z,19.40
2023-04-18T12:14:22.708Z,20.05
2023-04-18T12:17:27.676Z,19.99
2023-04-18T12:20:46.181Z,19.94
2023-04-18T12:23:48.234Z,19.78
2023-04-18T12:26:50.042Z,20.04
2023-04-18T12:29:51.844Z,20.14
2023-04-18T12:32:55.967Z,20.63
2023-04-18T12:35:57.863Z,20.07
2023-04-18T12:38:59.593Z,20.04
2023-04-18T12:42:02.290Z,19.68
2023-04-18T12:45:07.672Z,20.09
2023-04-18T12:48:09.792Z,19.85
2023-04-18T12:51:11.672Z,20.13
2023-04-18T12:54:13.683Z,19.92
2023-04-18T12:57:15.750Z,19.59
2023-04-18T13:00:17.740Z,19.60
2023-04-18T13:03:19.706Z,19.54
2023-04-18T13:06:21.602Z,19.69
2023-04-18T13:09:24.518Z,19.88
2023-04-18T13:12:26.577Z,19.57
2023-04-18T13:15:28.473Z,19.70
2023-04-18T13:18:30.302Z,19.88
2023-04-18T13:21:32.095Z,19.67
2023-04-18T13:24:34.010Z,19.98
2023-04-18T13:27:36.449Z,19.74
2023-04-18T13:30:38.275Z,19.93
2023-04-18T13:33:40.274Z,19.89
2023-04-18T13:36:43.416Z,20.21
2023-04-18T13:39:46.344Z,19.93
2023-04-18T13:42:48.712Z,19.95
2023-04-18T13:45:50.748Z,19.78
2023-04-18T13:48:52.760Z,20.35
2023-04-18T13:51:59.549Z,20.42
2023-04-18T13:55:01.832Z,20.49
2023-04-18T13:58:03.824Z,20.52
2023-04-18T14:01:06.070Z,20.43
2023-04-18T14:04:08.090Z,20.11
2023-04-18T14:07:10.102Z,19.90
2023-04-18T14:10:12.081Z,19.94
2023-04-18T14:13:13.993Z,19.87
2023-04-18T14:16:15.799Z,19.73
2023-04-18T14:19:18.183Z,19.78
2023-04-18T14:22:19.904Z,19.99
2023-04-18T14:25:22.248Z,20.37
2023-04-18T14:28:25.129Z,20.13
2023-04-18T14:31:28.180Z,19.89
2023-04-18T14:34:31.220Z,19.67
2023-04-18T14:37:35.583Z,19.73
2023-04-18T14:40:37.600Z,19.83
2023-04-18T14:43:39.412Z,19.86
2023-04-18T14:46:43.882Z,19.88
2023-04-18T14:49:46.126Z,19.87
2023-04-18T14:52:47.924Z,19.79
2023-04-18T14:55:50.476Z,19.69
2023-04-18T14:58:52.574Z,19.13
2023-04-18T15:01:54.765Z,19.21
2023-04-18T15:04:56.713Z,18.91
2023-04-18T15:07:58.587Z,18.82
2023-04-18T15:11:01.151Z,18.76
2023-04-18T15:14:03.342Z,18.54
2023-04-18T15:17:05.716Z,18.61
2023-04-18T15:20:08.546Z,18.60
2023-04-18T15:23:13.692Z,18.57
2023-04-18T15:26:15.933Z,18.51
2023-04-18T15:29:18.096Z,18.37
2023-04-18T15:32:20.156Z,18.28
2023-04-18T15:35:22.007Z,18.11
2023-04-18T15:38:23.811Z,18.21
2023-04-18T15:41:26.582Z,18.23
2023-04-18T15:44:29.164Z,18.20
2023-04-18T15:47:33.902Z,18.26
2023-04-18T15:50:36.546Z,18.22
2023-04-18T15:53:38.388Z,18.20
2023-04-18T15:56:42.269Z,18.22
2023-04-18T15:59:48.403Z,18.16
2023-04-18T16:02:50.792Z,18.19
2023-04-18T16:05:52.638Z,18.15
2023-04-18T16:08:54.813Z,18.23
2023-04-18T16:11:57.464Z,18.23
2023-04-18T16:14:59.411Z,18.18
2023-04-18T16:18:01.931Z,18.12
2023-04-18T16:21:03.973Z,17.88
2023-04-18T16:24:06.389Z,17.68
2023-04-18T16:27:08.231Z,17.51
2023-04-18T16:30:10.449Z,17.40
2023-04-18T16:33:14.108Z,17.16
2023-04-18T16:36:17.427Z,16.98
2023-04-18T16:39:19.445Z,16.83
2023-04-18T16:42:21.574Z,16.66
2023-04-18T16:45:23.573Z,16.63
2023-04-18T16:48:28.199Z,16.56
2023-04-18T16:51:31.275Z,16.50
2023-04-18T16:54:33.064Z,16.40
2023-04-18T16:57:34.995Z,16.21
2023-04-18T17:00:38.376Z,16.20
2023-04-18T17:03:41.144Z,16.26
2023-04-18T17:06:43.798Z,16.19
2023-04-18T17:09:45.973Z,16.15
2023-04-18T17:12:49.882Z,16.13
2023-04-18T17:15:52.520Z,16.05
2023-04-18T17:18:54.570Z,15.98
2023-04-18T17:21:56.440Z,16.01
2023-04-18T17:24:58.223Z,15.96
2023-04-18T17:28:02.222Z,15.85
2023-04-18T17:31:04.446Z,15.86
2023-04-18T17:34:07.047Z,15.80
2023-04-18T17:37:09.048Z,15.70
2023-04-18T17:40:11.995Z,15.63
2023-04-18T17:43:15.150Z,15.53
2023-04-18T17:46:17.362Z,15.47
2023-04-18T17:49:19.512Z,15.40
2023-04-18T17:52:21.912Z,15.28
2023-04-18T17:55:24.234Z,15.22
2023-04-18T17:58:26.750Z,15.11
2023-04-18T18:01:30.418Z,15.06
2023-04-18T18:04:32.703Z,14.92
2023-04-18T18:07:37.435Z,14.81
2023-04-18T18:10:48.670Z,14.80
2023-04-18T18:13:56.652Z,14.72
2023-04-18T18:16:58.953Z,14.63
2023-04-18T18:20:01.211Z,14.58
2023-04-18T18:23:03.679Z,14.44
2023-04-18T18:26:09.940Z,14.36
2023-04-18T18:29:12.609Z,14.34
2023-04-18T18:32:15.006Z,14.30
2023-04-18T18:35:17.176Z,14.20
2023-04-18T18:38:20.101Z,14.18
2023-04-18T18:41:22.696Z,14.19
2023-04-18T18:44:27.315Z,13.76
2023-04-18T18:47:30.590Z,13.57
2023-04-18T18:50:33.730Z,13.61
2023-04-18T18:53:38.404Z,13.55
2023-04-18T18:56:44.247Z,13.74
2023-04-18T18:59:46.760Z,13.74
2023-04-18T19:02:48.973Z,13.73
2023-04-18T19:05:51.202Z,13.75
2023-04-18T19:08:53.035Z,13.78
2023-04-18T19:11:58.573Z,13.81
2023-04-18T19:15:00.761Z,13.81
2023-04-18T19:18:02.888Z,13.77
2023-04-18T19:21:05.108Z,13.78
2023-04-18T19:24:07.512Z,13.75
2023-04-18T19:27:09.401Z,13.71
2023-04-18T19:30:12.036Z,13.76
2023-04-18T19:33:14.377Z,13.73
2023-04-18T19:36:16.460Z,13.74
2023-04-18T19:39:19.158Z,13.79
2023-04-18T19:42:21.282Z,13.77
2023-04-18T19:45:24.688Z,13.77
2023-04-18T19:48:27.182Z,13.81
2023-04-18T19:51:29.322Z,13.80
2023-04-18T19:54:33.285Z,13.83
2023-04-18T19:57:39.602Z,13.77
2023-04-18T20:00:42.606Z,13.81
2023-04-18T20:03:45.074Z,13.83
2023-04-18T20:06:47.586Z,13.82
2023-04-18T20:09:54.672Z,13.78
2023-04-18T20:12:56.832Z,13.85
2023-04-18T20:15:59.200Z,13.83
2023-04-18T20:19:01.890Z,13.86
2023-04-18T20:22:03.815Z,13.83
2023-04-18T20:25:06.706Z,13.81
2023-04-18T20:28:09.553Z,13.77
2023-04-18T20:31:12.242Z,13.73
2023-04-18T20:34:14.885Z,13.70
2023-04-18T20:37:19.878Z,13.66
2023-04-18T20:40:22.514Z,13.61
2023-04-18T20:43:24.941Z,13.64
2023-04-18T20:46:26.850Z,13.66
2023-04-18T20:49:30.961Z,13.71
2023-04-18T20:52:33.177Z,13.61
2023-04-18T20:55:34.971Z,13.55
2023-04-18T20:58:38.066Z,13.52
2023-04-18T21:01:40.166Z,13.60
2023-04-18T21:04:42.156Z,13.54
2023-04-18T21:07:45.293Z,13.56
2023-04-18T21:10:47.725Z,13.53
2023-04-18T21:13:49.914Z,13.51
2023-04-18T21:16:51.677Z,13.26
2023-04-18T21:19:53.545Z,13.49
2023-04-18T21:22:55.442Z,13.46
2023-04-18T21:25:57.322Z,13.45
2023-04-18T21:29:00.837Z,13.43
2023-04-18T21:32:02.944Z,13.34
2023-04-18T21:35:05.910Z,13.25
2023-04-18T21:38:07.758Z,13.25
2023-04-18T21:41:09.820Z,13.26
2023-04-18T21:44:11.956Z,13.28
2023-04-18T21:47:13.754Z,13.29
2023-04-18T21:50:15.921Z,13.27
2023-04-18T21:53:17.772Z,13.27
2023-04-18T21:56:19.524Z,13.22
2023-04-18T21:59:21.596Z,13.21
2023-04-18T22:02:25.126Z,13.17
2023-04-18T22:05:27.936Z,13.18
2023-04-18T22:08:31.042Z,13.15
2023-04-18T22:11:33.388Z,13.12
2023-04-18T22:14:35.315Z,13.15
2023-04-18T22:17:38.067Z,13.16
2023-04-18T22:20:41.520Z,13.13
2023-04-18T22:23:43.635Z,13.10
2023-04-18T22:26:45.515Z,13.16
2023-04-18T22:29:48.038Z,13.10
2023-04-18T22:32:50.021Z,13.10
2023-04-18T22:35:52.439Z,13.14
2023-04-18T22:38:54.276Z,13.14
2023-04-18T22:41:56.445Z,13.13
2023-04-18T22:44:58.592Z,13.10
2023-04-18T22:48:01.032Z,13.13
2023-04-18T22:51:03.350Z,13.11
2023-04-18T22:54:05.580Z,13.10
2023-04-18T22:57:07.630Z,13.06
2023-04-18T23:00:10.222Z,13.07
2023-04-18T23:03:12.388Z,13.06
2023-04-18T23:06:14.325Z,13.01
2023-04-18T23:09:19.714Z,13.02
2023-04-18T23:12:22.008Z,12.98
2023-04-18T23:15:24.604Z,12.98
2023-04-18T23:18:29.912Z,12.99
2023-04-18T23:21:32.290Z,13.00
2023-04-18T23:24:34.310Z,13.01
2023-04-18T23:27:36.150Z,13.02
2023-04-18T23:30:37.955Z,13.03
2023-04-18T23:33:39.700Z,13.01
2023-04-18T23:36:42.354Z,13.02
2023-04-18T23:39:44.210Z,13.01
2023-04-18T23:42:47.180Z,12.99
2023-04-18T23:45:48.976Z,12.96
2023-04-18T23:48:52.153Z,12.99
2023-04-18T23:51:54.278Z,12.96
2023-04-18T23:54:59.701Z,12.92
2023-04-18T23:58:01.420Z,12.85
